sensor_id;sensor_type;location;lat;lon;timestamp;temperature;humidity
52621;DHT22;38515;53.160;6.990;2023-01-10T00:00:35;3.90;99.90
52621;DHT22;38515;53.160;6.990;2023-01-10T00:03:07;3.90;99.90
52621;DHT22;38515;53.160;6.990;2023-01-10T00:05:37;3.80;99.90
52621;DHT22;38515;53.160;6.990;2023-01-10T00:08:04;3.80;99.90
52621;DHT22;38515;53.160;6.990;2023-01-10T00:10:31;3.90;99.90
52621;DHT22;38515;53.160;6.990;2023-01-10T00:12:57;3.60;99.90
52621;DHT22;38515;53.160;6.990;2023-01-10T00:15:41;3.60;99.90
52621;DHT22;38515;53.160;6.990;2023-01-10T00:18:08;3.50;99.90
52621;DHT22;38515;53.160;6.990;2023-01-10T00:20:34;3.60;99.90
52621;DHT22;38515;53.160;6.990;2023-01-10T00:23:00;3.90;99.90
52621;DHT22;38515;53.160;6.990;2023-01-10T00:25:26;3.00;99.90
52621;DHT22;38515;53.160;6.990;2023-01-10T00:27:53;3.80;99.90
52621;DHT22;38515;53.160;6.990;2023-01-10T00:30:38;3.80;99.90
52621;DHT22;38515;53.160;6.990;2023-01-10T00:33:06;3.60;99.90
52621;DHT22;38515;53.160;6.990;2023-01-10T00:35:32;3.70;99.90
52621;DHT22;38515;53.160;6.990;2023-01-10T00:37:58;3.40;99.90
52621;DHT22;38515;53.160;6.990;2023-01-10T00:40:31;3.40;99.90
52621;DHT22;38515;53.160;6.990;2023-01-10T00:42:58;4.00;99.90
52621;DHT22;38515;53.160;6.990;2023-01-10T00:45:46;4.10;99.90
52621;DHT22;38515;53.160;6.990;2023-01-10T00:48:13;2.40;99.90
52621;DHT22;38515;53.160;6.990;2023-01-10T00:50:40;3.10;99.90
52621;DHT22;38515;53.160;6.990;2023-01-10T00:53:06;3.10;99.90
52621;DHT22;38515;53.160;6.990;2023-01-10T00:55:34;2.30;99.90
52621;DHT22;38515;53.160;6.990;2023-01-10T00:58:00;1.70;99.90
52621;DHT22;38515;53.160;6.990;2023-01-10T01:00:26;3.70;99.90
52621;DHT22;38515;53.160;6.990;2023-01-10T01:02:52;3.60;99.90
52621;DHT22;38515;53.160;6.990;2023-01-10T01:05:18;2.90;99.90
52621;DHT22;38515;53.160;6.990;2023-01-10T01:07:47;3.00;99.90
52621;DHT22;38515;53.160;6.990;2023-01-10T01:10:14;2.70;99.90
52621;DHT22;38515;53.160;6.990;2023-01-10T01:12:53;3.10;99.90
52621;DHT22;38515;53.160;6.990;2023-01-10T01:15:20;3.20;99.90
52621;DHT22;38515;53.160;6.990;2023-01-10T01:17:46;3.30;99.90
52621;DHT22;38515;53.160;6.990;2023-01-10T01:20:13;3.10;99.90
52621;DHT22;38515;53.160;6.990;2023-01-10T01:22:39;3.30;99.90
52621;DHT22;38515;53.160;6.990;2023-01-10T01:25:05;3.30;99.90
52621;DHT22;38515;53.160;6.990;2023-01-10T01:27:31;3.80;99.90
52621;DHT22;38515;53.160;6.990;2023-01-10T01:29:59;3.00;99.90
52621;DHT22;38515;53.160;6.990;2023-01-10T01:32:26;3.60;99.90
52621;DHT22;38515;53.160;6.990;2023-01-10T01:34:52;4.40;99.90
52621;DHT22;38515;53.160;6.990;2023-01-10T01:37:18;3.60;99.90
52621;DHT22;38515;53.160;6.990;2023-01-10T01:39:47;3.90;99.90
52621;DHT22;38515;53.160;6.990;2023-01-10T01:42:28;4.00;99.90
52621;DHT22;38515;53.160;6.990;2023-01-10T01:50:03;4.30;99.90
52621;DHT22;38515;53.160;6.990;2023-01-10T01:52:32;4.30;99.90
52621;DHT22;38515;53.160;6.990;2023-01-10T01:55:00;4.40;99.90
52621;DHT22;38515;53.160;6.990;2023-01-10T01:57:29;4.80;99.90
52621;DHT22;38515;53.160;6.990;2023-01-10T01:59:57;4.40;99.90
52621;DHT22;38515;53.160;6.990;2023-01-10T02:02:29;4.40;99.90
52621;DHT22;38515;53.160;6.990;2023-01-10T02:04:57;4.80;99.90
52621;DHT22;38515;53.160;6.990;2023-01-10T02:07:27;4.30;99.90
52621;DHT22;38515;53.160;6.990;2023-01-10T02:09:58;4.20;99.90
52621;DHT22;38515;53.160;6.990;2023-01-10T02:12:26;4.10;99.90
52621;DHT22;38515;53.160;6.990;2023-01-10T02:14:54;4.10;99.90
52621;DHT22;38515;53.160;6.990;2023-01-10T02:17:20;4.10;99.90
52621;DHT22;38515;53.160;6.990;2023-01-10T02:20:00;4.00;99.90
52621;DHT22;38515;53.160;6.990;2023-01-10T02:44:23;3.50;99.90
52621;DHT22;38515;53.160;6.990;2023-01-10T02:46:52;3.50;99.90
52621;DHT22;38515;53.160;6.990;2023-01-10T02:49:20;3.60;99.90
52621;DHT22;38515;53.160;6.990;2023-01-10T02:51:46;3.50;99.90
52621;DHT22;38515;53.160;6.990;2023-01-10T02:54:17;3.80;99.90
52621;DHT22;38515;53.160;6.990;2023-01-10T02:59:33;3.90;99.90
52621;DHT22;38515;53.160;6.990;2023-01-10T03:10:56;4.00;99.90
52621;DHT22;38515;53.160;6.990;2023-01-10T03:13:42;4.00;99.90
52621;DHT22;38515;53.160;6.990;2023-01-10T03:16:10;4.10;99.90
52621;DHT22;38515;53.160;6.990;2023-01-10T03:18:52;4.10;99.90
52621;DHT22;38515;53.160;6.990;2023-01-10T03:21:20;4.10;99.90
52621;DHT22;38515;53.160;6.990;2023-01-10T03:23:49;4.40;99.90
52621;DHT22;38515;53.160;6.990;2023-01-10T03:26:23;3.40;99.90
52621;DHT22;38515;53.160;6.990;2023-01-10T03:28:55;4.20;99.90
52621;DHT22;38515;53.160;6.990;2023-01-10T03:31:27;4.20;99.90
52621;DHT22;38515;53.160;6.990;2023-01-10T03:33:55;4.60;99.90
52621;DHT22;38515;53.160;6.990;2023-01-10T03:39:07;4.80;99.90
52621;DHT22;38515;53.160;6.990;2023-01-10T03:44:41;4.50;99.90
52621;DHT22;38515;53.160;6.990;2023-01-10T03:47:26;4.60;99.90
52621;DHT22;38515;53.160;6.990;2023-01-10T03:49:58;4.60;99.90
52621;DHT22;38515;53.160;6.990;2023-01-10T03:52:25;4.50;99.90
52621;DHT22;38515;53.160;6.990;2023-01-10T03:54:52;4.50;99.90
52621;DHT22;38515;53.160;6.990;2023-01-10T03:57:21;4.40;99.90
52621;DHT22;38515;53.160;6.990;2023-01-10T03:59:54;4.30;99.90
52621;DHT22;38515;53.160;6.990;2023-01-10T04:02:21;4.40;99.90
52621;DHT22;38515;53.160;6.990;2023-01-10T04:04:47;4.40;99.90
52621;DHT22;38515;53.160;6.990;2023-01-10T04:07:13;4.50;99.90
52621;DHT22;38515;53.160;6.990;2023-01-10T04:09:38;4.60;99.90
52621;DHT22;38515;53.160;6.990;2023-01-10T04:12:04;5.60;99.90
52621;DHT22;38515;53.160;6.990;2023-01-10T04:14:30;5.00;99.90
52621;DHT22;38515;53.160;6.990;2023-01-10T04:16:57;5.20;99.90
52621;DHT22;38515;53.160;6.990;2023-01-10T04:19:25;4.80;99.90
52621;DHT22;38515;53.160;6.990;2023-01-10T04:21:51;4.90;99.90
52621;DHT22;38515;53.160;6.990;2023-01-10T04:24:17;4.90;99.90
52621;DHT22;38515;53.160;6.990;2023-01-10T04:26:43;5.10;99.90
52621;DHT22;38515;53.160;6.990;2023-01-10T04:29:09;4.90;99.90
52621;DHT22;38515;53.160;6.990;2023-01-10T04:31:36;4.90;99.90
52621;DHT22;38515;53.160;6.990;2023-01-10T04:34:02;4.90;99.90
52621;DHT22;38515;53.160;6.990;2023-01-10T04:36:28;4.90;99.90
52621;DHT22;38515;53.160;6.990;2023-01-10T04:38:54;4.80;99.90
52621;DHT22;38515;53.160;6.990;2023-01-10T04:41:20;4.70;99.90
52621;DHT22;38515;53.160;6.990;2023-01-10T04:43:45;4.50;99.90
52621;DHT22;38515;53.160;6.990;2023-01-10T04:46:11;4.10;99.90
52621;DHT22;38515;53.160;6.990;2023-01-10T04:48:37;4.30;99.90
52621;DHT22;38515;53.160;6.990;2023-01-10T04:51:03;4.20;99.90
52621;DHT22;38515;53.160;6.990;2023-01-10T04:53:29;4.10;99.90
52621;DHT22;38515;53.160;6.990;2023-01-10T04:56:03;4.10;99.90
52621;DHT22;38515;53.160;6.990;2023-01-10T04:58:34;4.50;99.90
52621;DHT22;38515;53.160;6.990;2023-01-10T05:01:09;4.00;99.90
52621;DHT22;38515;53.160;6.990;2023-01-10T05:03:35;4.10;99.90
52621;DHT22;38515;53.160;6.990;2023-01-10T05:06:01;4.10;99.90
52621;DHT22;38515;53.160;6.990;2023-01-10T05:08:27;3.90;99.90
52621;DHT22;38515;53.160;6.990;2023-01-10T05:10:53;4.20;99.90
52621;DHT22;38515;53.160;6.990;2023-01-10T05:13:19;4.80;99.90
52621;DHT22;38515;53.160;6.990;2023-01-10T05:15:45;4.30;99.90
52621;DHT22;38515;53.160;6.990;2023-01-10T05:18:11;4.30;99.90
52621;DHT22;38515;53.160;6.990;2023-01-10T05:20:37;3.90;99.90
52621;DHT22;38515;53.160;6.990;2023-01-10T05:23:03;4.30;99.90
52621;DHT22;38515;53.160;6.990;2023-01-10T05:25:29;4.20;99.90
52621;DHT22;38515;53.160;6.990;2023-01-10T05:27:55;3.70;99.90
52621;DHT22;38515;53.160;6.990;2023-01-10T05:30:21;4.10;99.90
52621;DHT22;38515;53.160;6.990;2023-01-10T05:32:46;4.10;99.90
52621;DHT22;38515;53.160;6.990;2023-01-10T05:35:12;4.20;99.90
52621;DHT22;38515;53.160;6.990;2023-01-10T05:37:39;4.30;99.90
52621;DHT22;38515;53.160;6.990;2023-01-10T05:40:05;3.40;99.90
52621;DHT22;38515;53.160;6.990;2023-01-10T05:42:31;4.40;99.90
52621;DHT22;38515;53.160;6.990;2023-01-10T05:44:57;4.60;99.90
52621;DHT22;38515;53.160;6.990;2023-01-10T05:47:23;4.70;99.90
52621;DHT22;38515;53.160;6.990;2023-01-10T05:49:50;4.80;99.90
52621;DHT22;38515;53.160;6.990;2023-01-10T05:52:15;4.80;99.90
52621;DHT22;38515;53.160;6.990;2023-01-10T05:54:41;4.70;99.90
52621;DHT22;38515;53.160;6.990;2023-01-10T05:57:07;4.80;99.90
52621;DHT22;38515;53.160;6.990;2023-01-10T05:59:33;4.80;99.90
52621;DHT22;38515;53.160;6.990;2023-01-10T06:01:59;4.90;99.90
52621;DHT22;38515;53.160;6.990;2023-01-10T06:04:25;5.00;99.90
52621;DHT22;38515;53.160;6.990;2023-01-10T06:06:51;5.10;99.90
52621;DHT22;38515;53.160;6.990;2023-01-10T06:09:17;5.10;99.90
52621;DHT22;38515;53.160;6.990;2023-01-10T06:11:43;5.20;99.90
52621;DHT22;38515;53.160;6.990;2023-01-10T06:14:09;5.20;99.90
52621;DHT22;38515;53.160;6.990;2023-01-10T06:16:35;5.20;99.90
52621;DHT22;38515;53.160;6.990;2023-01-10T06:19:01;5.20;99.90
52621;DHT22;38515;53.160;6.990;2023-01-10T06:21:26;5.20;99.90
52621;DHT22;38515;53.160;6.990;2023-01-10T06:23:53;5.20;99.90
52621;DHT22;38515;53.160;6.990;2023-01-10T06:28:45;5.30;99.90
52621;DHT22;38515;53.160;6.990;2023-01-10T06:31:11;6.00;99.90
52621;DHT22;38515;53.160;6.990;2023-01-10T06:33:39;5.30;99.90
52621;DHT22;38515;53.160;6.990;2023-01-10T06:36:06;5.30;99.90
52621;DHT22;38515;53.160;6.990;2023-01-10T06:38:32;5.30;99.90
52621;DHT22;38515;53.160;6.990;2023-01-10T06:40:58;5.30;99.90
52621;DHT22;38515;53.160;6.990;2023-01-10T06:43:47;5.30;99.90
52621;DHT22;38515;53.160;6.990;2023-01-10T06:46:15;5.30;99.90
52621;DHT22;38515;53.160;6.990;2023-01-10T06:48:43;5.30;99.90
52621;DHT22;38515;53.160;6.990;2023-01-10T06:51:10;5.20;99.90
52621;DHT22;38515;53.160;6.990;2023-01-10T06:53:36;5.20;99.90
52621;DHT22;38515;53.160;6.990;2023-01-10T06:56:02;5.00;99.90
52621;DHT22;38515;53.160;6.990;2023-01-10T06:58:31;5.00;99.90
52621;DHT22;38515;53.160;6.990;2023-01-10T07:01:26;4.80;99.90
52621;DHT22;38515;53.160;6.990;2023-01-10T07:03:52;4.70;99.90
52621;DHT22;38515;53.160;6.990;2023-01-10T07:06:18;4.70;99.90
52621;DHT22;38515;53.160;6.990;2023-01-10T07:08:45;4.60;99.90
52621;DHT22;38515;53.160;6.990;2023-01-10T07:11:13;4.40;99.90
52621;DHT22;38515;53.160;6.990;2023-01-10T07:13:39;4.50;99.90
52621;DHT22;38515;53.160;6.990;2023-01-10T07:16:10;4.50;99.90
52621;DHT22;38515;53.160;6.990;2023-01-10T07:18:38;4.40;99.90
52621;DHT22;38515;53.160;6.990;2023-01-10T07:21:04;4.30;99.90
52621;DHT22;38515;53.160;6.990;2023-01-10T07:23:31;4.20;99.90
52621;DHT22;38515;53.160;6.990;2023-01-10T07:25:57;4.30;99.90
52621;DHT22;38515;53.160;6.990;2023-01-10T07:28:23;4.30;99.90
52621;DHT22;38515;53.160;6.990;2023-01-10T07:30:49;4.20;99.90
52621;DHT22;38515;53.160;6.990;2023-01-10T07:33:15;4.20;99.90
52621;DHT22;38515;53.160;6.990;2023-01-10T07:35:41;4.30;99.90
52621;DHT22;38515;53.160;6.990;2023-01-10T07:38:06;4.40;99.90
52621;DHT22;38515;53.160;6.990;2023-01-10T07:40:33;4.40;99.90
52621;DHT22;38515;53.160;6.990;2023-01-10T07:43:00;4.60;99.90
52621;DHT22;38515;53.160;6.990;2023-01-10T07:45:27;4.70;99.90
52621;DHT22;38515;53.160;6.990;2023-01-10T07:47:57;4.90;99.90
52621;DHT22;38515;53.160;6.990;2023-01-10T07:50:24;5.00;99.90
52621;DHT22;38515;53.160;6.990;2023-01-10T07:52:51;5.00;99.90
52621;DHT22;38515;53.160;6.990;2023-01-10T07:55:17;5.10;99.90
52621;DHT22;38515;53.160;6.990;2023-01-10T07:57:43;5.90;99.90
52621;DHT22;38515;53.160;6.990;2023-01-10T08:00:10;4.60;99.90
52621;DHT22;38515;53.160;6.990;2023-01-10T08:02:36;5.20;99.90
52621;DHT22;38515;53.160;6.990;2023-01-10T08:05:02;5.30;99.90
52621;DHT22;38515;53.160;6.990;2023-01-10T08:07:29;5.30;99.90
52621;DHT22;38515;53.160;6.990;2023-01-10T08:09:55;5.30;99.90
52621;DHT22;38515;53.160;6.990;2023-01-10T08:12:21;5.30;99.90
52621;DHT22;38515;53.160;6.990;2023-01-10T08:14:49;5.40;99.90
52621;DHT22;38515;53.160;6.990;2023-01-10T08:17:15;5.40;99.90
52621;DHT22;38515;53.160;6.990;2023-01-10T08:19:42;4.60;99.90
52621;DHT22;38515;53.160;6.990;2023-01-10T08:22:07;5.50;99.90
52621;DHT22;38515;53.160;6.990;2023-01-10T08:24:34;5.60;99.90
52621;DHT22;38515;53.160;6.990;2023-01-10T08:27:00;5.70;99.90
52621;DHT22;38515;53.160;6.990;2023-01-10T08:29:27;5.70;99.90
52621;DHT22;38515;53.160;6.990;2023-01-10T08:31:53;5.80;99.90
52621;DHT22;38515;53.160;6.990;2023-01-10T08:34:19;5.80;99.90
52621;DHT22;38515;53.160;6.990;2023-01-10T08:36:48;5.90;99.90
52621;DHT22;38515;53.160;6.990;2023-01-10T08:39:14;5.90;99.90
52621;DHT22;38515;53.160;6.990;2023-01-10T08:41:40;5.90;99.90
52621;DHT22;38515;53.160;6.990;2023-01-10T08:44:06;5.90;99.90
52621;DHT22;38515;53.160;6.990;2023-01-10T08:46:32;6.00;99.90
52621;DHT22;38515;53.160;6.990;2023-01-10T08:48:58;6.00;99.90
52621;DHT22;38515;53.160;6.990;2023-01-10T08:51:23;6.00;99.90
52621;DHT22;38515;53.160;6.990;2023-01-10T08:53:49;6.10;99.90
52621;DHT22;38515;53.160;6.990;2023-01-10T08:56:15;5.90;99.90
52621;DHT22;38515;53.160;6.990;2023-01-10T08:58:41;6.00;99.90
52621;DHT22;38515;53.160;6.990;2023-01-10T09:01:07;6.00;99.90
52621;DHT22;38515;53.160;6.990;2023-01-10T09:03:34;6.00;99.90
52621;DHT22;38515;53.160;6.990;2023-01-10T09:06:00;6.10;99.90
52621;DHT22;38515;53.160;6.990;2023-01-10T09:08:27;6.20;99.90
52621;DHT22;38515;53.160;6.990;2023-01-10T09:10:53;6.20;99.90
52621;DHT22;38515;53.160;6.990;2023-01-10T09:13:19;6.30;99.90
52621;DHT22;38515;53.160;6.990;2023-01-10T09:15:45;6.30;99.90
52621;DHT22;38515;53.160;6.990;2023-01-10T09:18:12;6.40;99.90
52621;DHT22;38515;53.160;6.990;2023-01-10T09:20:40;6.40;99.90
52621;DHT22;38515;53.160;6.990;2023-01-10T09:23:11;6.50;99.90
52621;DHT22;38515;53.160;6.990;2023-01-10T09:25:42;6.60;99.90
52621;DHT22;38515;53.160;6.990;2023-01-10T09:28:08;6.90;99.90
52621;DHT22;38515;53.160;6.990;2023-01-10T09:30:35;7.20;99.90
52621;DHT22;38515;53.160;6.990;2023-01-10T09:33:01;7.50;99.90
52621;DHT22;38515;53.160;6.990;2023-01-10T09:35:29;7.70;99.90
52621;DHT22;38515;53.160;6.990;2023-01-10T09:37:57;7.90;99.90
52621;DHT22;38515;53.160;6.990;2023-01-10T09:40:58;8.10;99.90
52621;DHT22;38515;53.160;6.990;2023-01-10T09:43:40;8.20;99.90
52621;DHT22;38515;53.160;6.990;2023-01-10T09:51:48;8.70;99.90
52621;DHT22;38515;53.160;6.990;2023-01-10T09:54:19;8.60;99.90
52621;DHT22;38515;53.160;6.990;2023-01-10T09:56:48;8.50;99.90
52621;DHT22;38515;53.160;6.990;2023-01-10T09:59:23;8.20;99.90
52621;DHT22;38515;53.160;6.990;2023-01-10T10:01:52;7.90;99.90
52621;DHT22;38515;53.160;6.990;2023-01-10T10:06:51;7.50;99.90
52621;DHT22;38515;53.160;6.990;2023-01-10T10:09:30;7.40;99.90
52621;DHT22;38515;53.160;6.990;2023-01-10T10:18:06;7.10;99.90
52621;DHT22;38515;53.160;6.990;2023-01-10T10:20:38;7.00;99.90
52621;DHT22;38515;53.160;6.990;2023-01-10T10:23:29;6.90;99.90
52621;DHT22;38515;53.160;6.990;2023-01-10T10:26:16;6.80;99.90
52621;DHT22;38515;53.160;6.990;2023-01-10T10:34:34;6.90;99.90
52621;DHT22;38515;53.160;6.990;2023-01-10T10:39:51;6.80;99.90
52621;DHT22;38515;53.160;6.990;2023-01-10T10:42:18;6.90;99.90
52621;DHT22;38515;53.160;6.990;2023-01-10T10:45:00;6.90;99.90
52621;DHT22;38515;53.160;6.990;2023-01-10T10:47:32;5.90;99.90
52621;DHT22;38515;53.160;6.990;2023-01-10T10:52:39;6.90;99.90
52621;DHT22;38515;53.160;6.990;2023-01-10T10:55:06;7.00;99.90
52621;DHT22;38515;53.160;6.990;2023-01-10T10:57:38;7.00;99.90
52621;DHT22;38515;53.160;6.990;2023-01-10T11:00:06;7.00;99.90
52621;DHT22;38515;53.160;6.990;2023-01-10T11:02:44;7.00;99.90
52621;DHT22;38515;53.160;6.990;2023-01-10T11:05:22;7.00;99.90
52621;DHT22;38515;53.160;6.990;2023-01-10T11:07:58;7.00;99.90
52621;DHT22;38515;53.160;6.990;2023-01-10T11:10:26;7.00;99.90
52621;DHT22;38515;53.160;6.990;2023-01-10T11:15:52;7.10;99.90
52621;DHT22;38515;53.160;6.990;2023-01-10T11:18:20;7.10;99.90
52621;DHT22;38515;53.160;6.990;2023-01-10T11:20:57;7.10;99.90
52621;DHT22;38515;53.160;6.990;2023-01-10T11:25:54;7.10;99.90
52621;DHT22;38515;53.160;6.990;2023-01-10T11:28:22;7.10;99.90
52621;DHT22;38515;53.160;6.990;2023-01-10T11:30:50;7.10;99.90
52621;DHT22;38515;53.160;6.990;2023-01-10T11:33:30;7.10;99.90
52621;DHT22;38515;53.160;6.990;2023-01-10T11:36:05;7.20;99.90
52621;DHT22;38515;53.160;6.990;2023-01-10T11:38:32;7.20;99.90
52621;DHT22;38515;53.160;6.990;2023-01-10T11:43:34;7.20;99.90
52621;DHT22;38515;53.160;6.990;2023-01-10T11:48:58;7.20;99.90
52621;DHT22;38515;53.160;6.990;2023-01-10T11:51:29;7.20;99.90
52621;DHT22;38515;53.160;6.990;2023-01-10T11:54:04;7.30;99.90
52621;DHT22;38515;53.160;6.990;2023-01-10T11:56:34;7.30;99.90
52621;DHT22;38515;53.160;6.990;2023-01-10T11:59:10;7.30;99.90
52621;DHT22;38515;53.160;6.990;2023-01-10T12:04:19;7.20;99.90
52621;DHT22;38515;53.160;6.990;2023-01-10T12:06:49;7.20;99.90
52621;DHT22;38515;53.160;6.990;2023-01-10T12:09:33;7.10;99.90
52621;DHT22;38515;53.160;6.990;2023-01-10T12:12:16;7.10;99.90
52621;DHT22;38515;53.160;6.990;2023-01-10T12:14:43;7.20;99.90
52621;DHT22;38515;53.160;6.990;2023-01-10T12:17:29;7.10;99.90
52621;DHT22;38515;53.160;6.990;2023-01-10T12:19:58;6.70;99.90
52621;DHT22;38515;53.160;6.990;2023-01-10T12:22:34;7.20;99.90
52621;DHT22;38515;53.160;6.990;2023-01-10T12:25:31;7.20;99.90
52621;DHT22;38515;53.160;6.990;2023-01-10T12:27:53;7.10;99.90
52621;DHT22;38515;53.160;6.990;2023-01-10T12:30:39;7.10;99.90
52621;DHT22;38515;53.160;6.990;2023-01-10T12:33:35;7.20;99.90
52621;DHT22;38515;53.160;6.990;2023-01-10T12:36:11;7.20;99.90
52621;DHT22;38515;53.160;6.990;2023-01-10T12:38:41;7.20;99.90
52621;DHT22;38515;53.160;6.990;2023-01-10T12:41:53;7.10;99.90
52621;DHT22;38515;53.160;6.990;2023-01-10T12:44:45;7.20;99.90
52621;DHT22;38515;53.160;6.990;2023-01-10T12:49:56;7.10;99.90
52621;DHT22;38515;53.160;6.990;2023-01-10T12:52:30;7.10;99.90
52621;DHT22;38515;53.160;6.990;2023-01-10T12:54:58;7.20;99.90
52621;DHT22;38515;53.160;6.990;2023-01-10T12:57:37;7.10;99.90
52621;DHT22;38515;53.160;6.990;2023-01-10T13:00:05;7.00;99.90
52621;DHT22;38515;53.160;6.990;2023-01-10T13:02:41;7.00;99.90
52621;DHT22;38515;53.160;6.990;2023-01-10T13:05:23;7.00;99.90
52621;DHT22;38515;53.160;6.990;2023-01-10T13:07:51;7.10;99.90
52621;DHT22;38515;53.160;6.990;2023-01-10T13:10:20;7.00;99.90
52621;DHT22;38515;53.160;6.990;2023-01-10T13:13:02;6.90;99.90
52621;DHT22;38515;53.160;6.990;2023-01-10T13:15:35;7.50;99.90
52621;DHT22;38515;53.160;6.990;2023-01-10T13:18:28;6.80;99.90
52621;DHT22;38515;53.160;6.990;2023-01-10T13:21:11;6.80;99.90
52621;DHT22;38515;53.160;6.990;2023-01-10T13:23:50;6.80;99.90
52621;DHT22;38515;53.160;6.990;2023-01-10T13:26:20;6.80;99.90
52621;DHT22;38515;53.160;6.990;2023-01-10T13:29:00;6.80;99.90
52621;DHT22;38515;53.160;6.990;2023-01-10T13:31:32;6.90;99.90
52621;DHT22;38515;53.160;6.990;2023-01-10T13:36:39;6.60;99.90
52621;DHT22;38515;53.160;6.990;2023-01-10T13:39:16;6.60;99.90
52621;DHT22;38515;53.160;6.990;2023-01-10T13:52:49;6.50;99.90
52621;DHT22;38515;53.160;6.990;2023-01-10T13:57:56;6.50;99.90
52621;DHT22;38515;53.160;6.990;2023-01-10T14:00:45;6.40;99.90
52621;DHT22;38515;53.160;6.990;2023-01-10T14:03:40;6.50;99.90
52621;DHT22;38515;53.160;6.990;2023-01-10T14:08:55;6.30;99.90
52621;DHT22;38515;53.160;6.990;2023-01-10T14:11:56;6.30;99.90
52621;DHT22;38515;53.160;6.990;2023-01-10T14:14:32;6.30;99.90
52621;DHT22;38515;53.160;6.990;2023-01-10T14:17:21;6.20;99.90
52621;DHT22;38515;53.160;6.990;2023-01-10T14:20:05;6.30;99.90
52621;DHT22;38515;53.160;6.990;2023-01-10T14:22:39;6.20;99.90
52621;DHT22;38515;53.160;6.990;2023-01-10T14:25:18;6.20;99.90
52621;DHT22;38515;53.160;6.990;2023-01-10T14:27:49;6.10;99.90
52621;DHT22;38515;53.160;6.990;2023-01-10T14:32:49;6.20;99.90
52621;DHT22;38515;53.160;6.990;2023-01-10T14:35:22;6.10;99.90
52621;DHT22;38515;53.160;6.990;2023-01-10T14:37:57;6.10;99.90
52621;DHT22;38515;53.160;6.990;2023-01-10T14:42:54;6.00;99.90
52621;DHT22;38515;53.160;6.990;2023-01-10T14:45:37;6.00;99.90
52621;DHT22;38515;53.160;6.990;2023-01-10T14:48:25;6.00;99.90
52621;DHT22;38515;53.160;6.990;2023-01-10T14:51:23;6.00;99.90
52621;DHT22;38515;53.160;6.990;2023-01-10T14:53:56;6.00;99.90
52621;DHT22;38515;53.160;6.990;2023-01-10T14:56:29;5.90;99.90
52621;DHT22;38515;53.160;6.990;2023-01-10T14:58:55;5.90;99.90
52621;DHT22;38515;53.160;6.990;2023-01-10T15:01:24;5.90;99.90
52621;DHT22;38515;53.160;6.990;2023-01-10T15:03:51;5.90;99.90
52621;DHT22;38515;53.160;6.990;2023-01-10T15:06:18;5.90;99.90
52621;DHT22;38515;53.160;6.990;2023-01-10T15:08:44;5.90;99.90
52621;DHT22;38515;53.160;6.990;2023-01-10T15:11:11;6.00;99.90
52621;DHT22;38515;53.160;6.990;2023-01-10T15:13:52;6.00;99.90
52621;DHT22;38515;53.160;6.990;2023-01-10T15:16:22;6.00;99.90
52621;DHT22;38515;53.160;6.990;2023-01-10T15:18:49;6.00;99.90
52621;DHT22;38515;53.160;6.990;2023-01-10T15:21:17;6.00;99.90
52621;DHT22;38515;53.160;6.990;2023-01-10T15:23:45;5.90;99.90
52621;DHT22;38515;53.160;6.990;2023-01-10T15:26:18;6.00;99.90
52621;DHT22;38515;53.160;6.990;2023-01-10T15:28:46;5.90;99.90
52621;DHT22;38515;53.160;6.990;2023-01-10T15:31:24;5.90;99.90
52621;DHT22;38515;53.160;6.990;2023-01-10T15:33:50;5.90;99.90
52621;DHT22;38515;53.160;6.990;2023-01-10T15:36:24;5.90;99.90
52621;DHT22;38515;53.160;6.990;2023-01-10T15:38:51;6.00;99.90
52621;DHT22;38515;53.160;6.990;2023-01-10T15:41:22;6.00;99.90
52621;DHT22;38515;53.160;6.990;2023-01-10T15:43:49;6.00;99.90
52621;DHT22;38515;53.160;6.990;2023-01-10T15:46:21;6.00;99.90
52621;DHT22;38515;53.160;6.990;2023-01-10T15:49:00;6.00;99.90
52621;DHT22;38515;53.160;6.990;2023-01-10T15:51:31;6.00;99.90
52621;DHT22;38515;53.160;6.990;2023-01-10T15:56:47;6.20;99.90
52621;DHT22;38515;53.160;6.990;2023-01-10T16:05:23;6.00;99.90
52621;DHT22;38515;53.160;6.990;2023-01-10T16:07:45;6.00;99.90
52621;DHT22;38515;53.160;6.990;2023-01-10T16:10:26;5.90;99.90
52621;DHT22;38515;53.160;6.990;2023-01-10T16:12:52;6.00;99.90
52621;DHT22;38515;53.160;6.990;2023-01-10T16:15:40;6.00;99.90
52621;DHT22;38515;53.160;6.990;2023-01-10T16:18:08;6.00;99.90
52621;DHT22;38515;53.160;6.990;2023-01-10T16:20:37;6.00;99.90
52621;DHT22;38515;53.160;6.990;2023-01-10T16:23:05;6.00;99.90
52621;DHT22;38515;53.160;6.990;2023-01-10T16:25:36;6.00;99.90
52621;DHT22;38515;53.160;6.990;2023-01-10T16:28:04;6.10;99.90
52621;DHT22;38515;53.160;6.990;2023-01-10T16:30:32;6.10;99.90
52621;DHT22;38515;53.160;6.990;2023-01-10T16:33:01;6.10;99.90
52621;DHT22;38515;53.160;6.990;2023-01-10T16:35:33;6.10;99.90
52621;DHT22;38515;53.160;6.990;2023-01-10T16:37:59;6.00;99.90
52621;DHT22;38515;53.160;6.990;2023-01-10T16:40:32;6.00;99.90
52621;DHT22;38515;53.160;6.990;2023-01-10T16:42:59;6.00;99.90
52621;DHT22;38515;53.160;6.990;2023-01-10T16:45:55;6.00;99.90
52621;DHT22;38515;53.160;6.990;2023-01-10T16:48:26;6.00;99.90
52621;DHT22;38515;53.160;6.990;2023-01-10T16:50:53;5.90;99.90
52621;DHT22;38515;53.160;6.990;2023-01-10T16:53:20;5.90;99.90
52621;DHT22;38515;53.160;6.990;2023-01-10T16:55:47;5.90;99.90
52621;DHT22;38515;53.160;6.990;2023-01-10T16:58:15;5.90;99.90
52621;DHT22;38515;53.160;6.990;2023-01-10T17:00:43;5.90;99.90
52621;DHT22;38515;53.160;6.990;2023-01-10T17:03:20;5.80;99.90
52621;DHT22;38515;53.160;6.990;2023-01-10T17:05:46;5.90;99.90
52621;DHT22;38515;53.160;6.990;2023-01-10T17:08:16;5.90;99.90
52621;DHT22;38515;53.160;6.990;2023-01-10T17:10:44;5.80;99.90
52621;DHT22;38515;53.160;6.990;2023-01-10T17:13:13;5.80;99.90
52621;DHT22;38515;53.160;6.990;2023-01-10T17:15:40;5.80;99.90
52621;DHT22;38515;53.160;6.990;2023-01-10T17:18:05;5.80;99.90
52621;DHT22;38515;53.160;6.990;2023-01-10T17:20:31;5.80;99.90
52621;DHT22;38515;53.160;6.990;2023-01-10T17:22:57;5.80;99.90
52621;DHT22;38515;53.160;6.990;2023-01-10T17:25:23;5.80;99.90
52621;DHT22;38515;53.160;6.990;2023-01-10T17:27:49;5.80;99.90
52621;DHT22;38515;53.160;6.990;2023-01-10T17:30:15;5.60;99.90
52621;DHT22;38515;53.160;6.990;2023-01-10T17:32:41;5.70;99.90
52621;DHT22;38515;53.160;6.990;2023-01-10T17:35:08;5.70;99.90
52621;DHT22;38515;53.160;6.990;2023-01-10T17:37:34;5.60;99.90
52621;DHT22;38515;53.160;6.990;2023-01-10T17:40:01;5.40;99.90
52621;DHT22;38515;53.160;6.990;2023-01-10T17:42:27;5.70;99.90
52621;DHT22;38515;53.160;6.990;2023-01-10T17:44:53;5.70;99.90
52621;DHT22;38515;53.160;6.990;2023-01-10T17:47:19;5.70;99.90
52621;DHT22;38515;53.160;6.990;2023-01-10T17:49:45;5.60;99.90
52621;DHT22;38515;53.160;6.990;2023-01-10T17:52:11;5.70;99.90
52621;DHT22;38515;53.160;6.990;2023-01-10T17:54:37;5.70;99.90
52621;DHT22;38515;53.160;6.990;2023-01-10T17:57:03;5.70;99.90
52621;DHT22;38515;53.160;6.990;2023-01-10T17:59:30;5.70;99.90
52621;DHT22;38515;53.160;6.990;2023-01-10T18:01:56;5.60;99.90
52621;DHT22;38515;53.160;6.990;2023-01-10T18:04:22;5.60;99.90